Aviation Digital Data Service (ADDS)

Output produced by METARs form (1432 UTC 21 August 2019)
found at http://www.aviationweather.gov/metar/data/
 
METAR text: LETL 211300Z AUTO 17009KT 140V210 CAVOK 24/14 Q1022
Conditions at: LETL (TERUEL , ES) observed 1300 UTC 21 August 2019
Temperature: 24.0°C (75°F)
Dewpoint: 14.0°C (57°F) [RH = 54%]
Pressure (altimeter): 30.18 inches Hg (1022.0 mb)
Winds: from the S (170 degrees) at 10 MPH (9 knots; 4.6 m/s)
Visibility: 6 or more miles (10+ km)
Ceiling: ceiling and visibility are OK
Clouds: unknown
Weather: no significant weather observed at this time

METAR text: LETL 211230Z AUTO 17009KT 130V210 9999 VCTS ///CB 23/14 Q1023
Conditions at: LETL (TERUEL , ES) observed 1230 UTC 21 August 2019
Temperature: 23.0°C (73°F)
Dewpoint: 14.0°C (57°F) [RH = 57%]
Pressure (altimeter): 30.21 inches Hg (1023.0 mb)
Winds: from the S (170 degrees) at 10 MPH (9 knots; 4.6 m/s)
Visibility: 6 or more miles (10+ km)
Ceiling: unknown
Clouds: missing
Weather: VCTS  (thunderstorm in vicinity)

METAR text: LETL 211200Z AUTO 18007KT 140V210 9999 SCT032 22/14 Q1023
Conditions at: LETL (TERUEL , ES) observed 1200 UTC 21 August 2019
Temperature: 22.0°C (72°F)
Dewpoint: 14.0°C (57°F) [RH = 60%]
Pressure (altimeter): 30.21 inches Hg (1023.0 mb)
Winds: from the S (180 degrees) at 8 MPH (7 knots; 3.6 m/s)
Visibility: 6 or more miles (10+ km)
Ceiling: at least 12,000 feet AGL
Clouds: scattered clouds at 3200 feet AGL
Weather: no significant weather observed at this time

METAR text: LETL 211130Z AUTO 19008KT 140V260 9999 FEW046 22/14 Q1023
Conditions at: LETL (TERUEL , ES) observed 1130 UTC 21 August 2019
Temperature: 22.0°C (72°F)
Dewpoint: 14.0°C (57°F) [RH = 60%]
Pressure (altimeter): 30.21 inches Hg (1023.0 mb)
Winds: from the S (190 degrees) at 9 MPH (8 knots; 4.1 m/s)
Visibility: 6 or more miles (10+ km)
Ceiling: at least 12,000 feet AGL
Clouds: few clouds at 4600 feet AGL
Weather: no significant weather observed at this time

METAR text: LETL 211100Z AUTO 21006KT 170V260 9999 SCT027 22/14 Q1024
Conditions at: LETL (TERUEL , ES) observed 1100 UTC 21 August 2019
Temperature: 22.0°C (72°F)
Dewpoint: 14.0°C (57°F) [RH = 60%]
Pressure (altimeter): 30.24 inches Hg (1024.0 mb)
Winds: from the SSW (210 degrees) at 7 MPH (6 knots; 3.1 m/s)
Visibility: 6 or more miles (10+ km)
Ceiling: at least 12,000 feet AGL
Clouds: scattered clouds at 2700 feet AGL
Weather: no significant weather observed at this time

METAR text: LETL 211030Z AUTO 12002KT 9999 BKN024 21/14 Q1024
Conditions at: LETL (TERUEL , ES) observed 1030 UTC 21 August 2019
Temperature: 21.0°C (70°F)
Dewpoint: 14.0°C (57°F) [RH = 64%]
Pressure (altimeter): 30.24 inches Hg (1024.0 mb)
Winds: from the ESE (120 degrees) at 2 MPH (2 knots; 1.0 m/s)
Visibility: 6 or more miles (10+ km)
Ceiling: 2400 feet AGL
Clouds: broken clouds at 2400 feet AGL
Weather: no significant weather observed at this time

METAR text: LETL 211000Z AUTO 17005KT 080V230 9999 BKN021 20/14 Q1024
Conditions at: LETL (TERUEL , ES) observed 1000 UTC 21 August 2019
Temperature: 20.0°C (68°F)
Dewpoint: 14.0°C (57°F) [RH = 68%]
Pressure (altimeter): 30.24 inches Hg (1024.0 mb)
Winds: from the S (170 degrees) at 6 MPH (5 knots; 2.6 m/s)
Visibility: 6 or more miles (10+ km)
Ceiling: 2100 feet AGL
Clouds: broken clouds at 2100 feet AGL
Weather: no significant weather observed at this time

METAR text: LETL 210930Z AUTO 14006KT 100V180 9999 BKN020 OVC026 20/14 Q1024
Conditions at: LETL (TERUEL , ES) observed 0930 UTC 21 August 2019
Temperature: 20.0°C (68°F)
Dewpoint: 14.0°C (57°F) [RH = 68%]
Pressure (altimeter): 30.24 inches Hg (1024.0 mb)
Winds: from the SE (140 degrees) at 7 MPH (6 knots; 3.1 m/s)
Visibility: 6 or more miles (10+ km)
Ceiling: 2000 feet AGL
Clouds: broken clouds at 2000 feet AGL
overcast cloud deck at 2600 feet AGL
Weather: no significant weather observed at this time

METAR text: LETL 210900Z AUTO 14008KT 090V170 9999 OVC028 19/14 Q1024
Conditions at: LETL (TERUEL , ES) observed 0900 UTC 21 August 2019
Temperature: 19.0°C (66°F)
Dewpoint: 14.0°C (57°F) [RH = 73%]
Pressure (altimeter): 30.24 inches Hg (1024.0 mb)
Winds: from the SE (140 degrees) at 9 MPH (8 knots; 4.1 m/s)
Visibility: 6 or more miles (10+ km)
Ceiling: 2800 feet AGL
Clouds: overcast cloud deck at 2800 feet AGL
Weather: no significant weather observed at this time

METAR text: LETL 210830Z AUTO 14008KT 120V190 9999 FEW013 OVC028 18/14 Q1024
Conditions at: LETL (TERUEL , ES) observed 0830 UTC 21 August 2019
Temperature: 18.0°C (64°F)
Dewpoint: 14.0°C (57°F) [RH = 77%]
Pressure (altimeter): 30.24 inches Hg (1024.0 mb)
Winds: from the SE (140 degrees) at 9 MPH (8 knots; 4.1 m/s)
Visibility: 6 or more miles (10+ km)
Ceiling: 2800 feet AGL
Clouds: few clouds at 1300 feet AGL
overcast cloud deck at 2800 feet AGL
Weather: no significant weather observed at this time

METAR text: LETL 210800Z AUTO 15005KT 120V200 9999 SCT012 OVC027 18/14 Q1024
Conditions at: LETL (TERUEL , ES) observed 0800 UTC 21 August 2019
Temperature: 18.0°C (64°F)
Dewpoint: 14.0°C (57°F) [RH = 77%]
Pressure (altimeter): 30.24 inches Hg (1024.0 mb)
Winds: from the SSE (150 degrees) at 6 MPH (5 knots; 2.6 m/s)
Visibility: 6 or more miles (10+ km)
Ceiling: 2700 feet AGL
Clouds: scattered clouds at 1200 feet AGL
overcast cloud deck at 2700 feet AGL
Weather: no significant weather observed at this time

METAR text: LETL 210730Z AUTO 15006KT 120V190 9999 SCT012 OVC028 17/14 Q1024
Conditions at: LETL (TERUEL , ES) observed 0730 UTC 21 August 2019
Temperature: 17.0°C (63°F)
Dewpoint: 14.0°C (57°F) [RH = 82%]
Pressure (altimeter): 30.24 inches Hg (1024.0 mb)
Winds: from the SSE (150 degrees) at 7 MPH (6 knots; 3.1 m/s)
Visibility: 6 or more miles (10+ km)
Ceiling: 2800 feet AGL
Clouds: scattered clouds at 1200 feet AGL
overcast cloud deck at 2800 feet AGL
Weather: no significant weather observed at this time

METAR text: LETL 210700Z AUTO 17004KT 9999 OVC027 17/13 Q1024
Conditions at: LETL (TERUEL , ES) observed 0700 UTC 21 August 2019
Temperature: 17.0°C (63°F)
Dewpoint: 13.0°C (55°F) [RH = 77%]
Pressure (altimeter): 30.24 inches Hg (1024.0 mb)
Winds: from the S (170 degrees) at 5 MPH (4 knots; 2.1 m/s)
Visibility: 6 or more miles (10+ km)
Ceiling: 2700 feet AGL
Clouds: overcast cloud deck at 2700 feet AGL
Weather: no significant weather observed at this time

METAR text: LETL 210630Z AUTO 14005KT 9999 FEW016 OVC027 16/13 Q1024
Conditions at: LETL (TERUEL , ES) observed 0630 UTC 21 August 2019
Temperature: 16.0°C (61°F)
Dewpoint: 13.0°C (55°F) [RH = 82%]
Pressure (altimeter): 30.24 inches Hg (1024.0 mb)
Winds: from the SE (140 degrees) at 6 MPH (5 knots; 2.6 m/s)
Visibility: 6 or more miles (10+ km)
Ceiling: 2700 feet AGL
Clouds: few clouds at 1600 feet AGL
overcast cloud deck at 2700 feet AGL
Weather: no significant weather observed at this time

METAR text: LETL 210600Z AUTO 14003KT 9999 SCT028 BKN036 15/13 Q1024
Conditions at: LETL (TERUEL , ES) observed 0600 UTC 21 August 2019
Temperature: 15.0°C (59°F)
Dewpoint: 13.0°C (55°F) [RH = 88%]
Pressure (altimeter): 30.24 inches Hg (1024.0 mb)
Winds: from the SE (140 degrees) at 3 MPH (3 knots; 1.5 m/s)
Visibility: 6 or more miles (10+ km)
Ceiling: 3600 feet AGL
Clouds: scattered clouds at 2800 feet AGL
broken clouds at 3600 feet AGL
Weather: no significant weather observed at this time

METAR text: LETL 210530Z AUTO 00000KT 9999 BKN023 OVC036 15/13 Q1024
Conditions at: LETL (TERUEL , ES) observed 0530 UTC 21 August 2019
Temperature: 15.0°C (59°F)
Dewpoint: 13.0°C (55°F) [RH = 88%]
Pressure (altimeter): 30.24 inches Hg (1024.0 mb)
Winds: calm
Visibility: 6 or more miles (10+ km)
Ceiling: 2300 feet AGL
Clouds: broken clouds at 2300 feet AGL
overcast cloud deck at 3600 feet AGL
Weather: no significant weather observed at this time

METAR text: LETL 210500Z AUTO 18003KT 9999 BKN021 BKN039 15/13 Q1024
Conditions at: LETL (TERUEL , ES) observed 0500 UTC 21 August 2019
Temperature: 15.0°C (59°F)
Dewpoint: 13.0°C (55°F) [RH = 88%]
Pressure (altimeter): 30.24 inches Hg (1024.0 mb)
Winds: from the S (180 degrees) at 3 MPH (3 knots; 1.5 m/s)
Visibility: 6 or more miles (10+ km)
Ceiling: 2100 feet AGL
Clouds: broken clouds at 2100 feet AGL
broken clouds at 3900 feet AGL
Weather: no significant weather observed at this time

METAR text: LETL 210430Z AUTO 12002KT 9999 FEW021 14/13 Q1024
Conditions at: LETL (TERUEL , ES) observed 0430 UTC 21 August 2019
Temperature: 14.0°C (57°F)
Dewpoint: 13.0°C (55°F) [RH = 94%]
Pressure (altimeter): 30.24 inches Hg (1024.0 mb)
Winds: from the ESE (120 degrees) at 2 MPH (2 knots; 1.0 m/s)
Visibility: 6 or more miles (10+ km)
Ceiling: at least 12,000 feet AGL
Clouds: few clouds at 2100 feet AGL
Weather: no significant weather observed at this time

METAR text: LETL 210400Z AUTO 13003KT 090V150 9999 NCD 15/13 Q1024
Conditions at: LETL (TERUEL , ES) observed 0400 UTC 21 August 2019
Temperature: 15.0°C (59°F)
Dewpoint: 13.0°C (55°F) [RH = 88%]
Pressure (altimeter): 30.24 inches Hg (1024.0 mb)
Winds: from the SE (130 degrees) at 3 MPH (3 knots; 1.5 m/s)
Visibility: 6 or more miles (10+ km)
Ceiling: at least 12,000 feet AGL
Clouds: sky clear below 12,000 feet AGL
Weather: no significant weather observed at this time

METAR text: LETL 210330Z AUTO 13004KT 9999 NCD 15/13 Q1024
Conditions at: LETL (TERUEL , ES) observed 0330 UTC 21 August 2019
Temperature: 15.0°C (59°F)
Dewpoint: 13.0°C (55°F) [RH = 88%]
Pressure (altimeter): 30.24 inches Hg (1024.0 mb)
Winds: from the SE (130 degrees) at 5 MPH (4 knots; 2.1 m/s)
Visibility: 6 or more miles (10+ km)
Ceiling: at least 12,000 feet AGL
Clouds: sky clear below 12,000 feet AGL
Weather: no significant weather observed at this time

METAR text: LETL 210300Z AUTO 15008KT 9999 NCD 16/13 Q1024
Conditions at: LETL (TERUEL , ES) observed 0300 UTC 21 August 2019
Temperature: 16.0°C (61°F)
Dewpoint: 13.0°C (55°F) [RH = 82%]
Pressure (altimeter): 30.24 inches Hg (1024.0 mb)
Winds: from the SSE (150 degrees) at 9 MPH (8 knots; 4.1 m/s)
Visibility: 6 or more miles (10+ km)
Ceiling: at least 12,000 feet AGL
Clouds: sky clear below 12,000 feet AGL
Weather: no significant weather observed at this time

METAR text: LETL 210230Z AUTO 15009KT 9999 FEW023 17/13 Q1024
Conditions at: LETL (TERUEL , ES) observed 0230 UTC 21 August 2019
Temperature: 17.0°C (63°F)
Dewpoint: 13.0°C (55°F) [RH = 77%]
Pressure (altimeter): 30.24 inches Hg (1024.0 mb)
Winds: from the SSE (150 degrees) at 10 MPH (9 knots; 4.6 m/s)
Visibility: 6 or more miles (10+ km)
Ceiling: at least 12,000 feet AGL
Clouds: few clouds at 2300 feet AGL
Weather: no significant weather observed at this time

METAR text: LETL 210200Z AUTO 14009KT 9999 SCT025 BKN034 BKN045 17/13 Q1024
Conditions at: LETL (TERUEL , ES) observed 0200 UTC 21 August 2019
Temperature: 17.0°C (63°F)
Dewpoint: 13.0°C (55°F) [RH = 77%]
Pressure (altimeter): 30.24 inches Hg (1024.0 mb)
Winds: from the SE (140 degrees) at 10 MPH (9 knots; 4.6 m/s)
Visibility: 6 or more miles (10+ km)
Ceiling: 3400 feet AGL
Clouds: scattered clouds at 2500 feet AGL
broken clouds at 3400 feet AGL
broken clouds at 4500 feet AGL
Weather: no significant weather observed at this time

METAR text: LETL 210130Z AUTO 15011KT 9999 OVC042 17/13 Q1024
Conditions at: LETL (TERUEL , ES) observed 0130 UTC 21 August 2019
Temperature: 17.0°C (63°F)
Dewpoint: 13.0°C (55°F) [RH = 77%]
Pressure (altimeter): 30.24 inches Hg (1024.0 mb)
Winds: from the SSE (150 degrees) at 13 MPH (11 knots; 5.7 m/s)
Visibility: 6 or more miles (10+ km)
Ceiling: 4200 feet AGL
Clouds: overcast cloud deck at 4200 feet AGL
Weather: no significant weather observed at this time

METAR text: LETL 210100Z AUTO 15012KT 9999 SCT028 OVC039 17/13 Q1025
Conditions at: LETL (TERUEL , ES) observed 0100 UTC 21 August 2019
Temperature: 17.0°C (63°F)
Dewpoint: 13.0°C (55°F) [RH = 77%]
Pressure (altimeter): 30.27 inches Hg (1025.0 mb)
Winds: from the SSE (150 degrees) at 14 MPH (12 knots; 6.2 m/s)
Visibility: 6 or more miles (10+ km)
Ceiling: 3900 feet AGL
Clouds: scattered clouds at 2800 feet AGL
overcast cloud deck at 3900 feet AGL
Weather: no significant weather observed at this time

METAR text: LETL 210030Z AUTO 12004KT 060V180 9999 FEW029 OVC037 17/13 Q1025
Conditions at: LETL (TERUEL , ES) observed 0030 UTC 21 August 2019
Temperature: 17.0°C (63°F)
Dewpoint: 13.0°C (55°F) [RH = 77%]
Pressure (altimeter): 30.27 inches Hg (1025.0 mb)
Winds: from the ESE (120 degrees) at 5 MPH (4 knots; 2.1 m/s)
Visibility: 6 or more miles (10+ km)
Ceiling: 3700 feet AGL
Clouds: few clouds at 2900 feet AGL
overcast cloud deck at 3700 feet AGL
Weather: no significant weather observed at this time

METAR text: LETL 210000Z AUTO 12005KT 080V160 9999 OVC035 17/13 Q1025
Conditions at: LETL (TERUEL , ES) observed 0000 UTC 21 August 2019
Temperature: 17.0°C (63°F)
Dewpoint: 13.0°C (55°F) [RH = 77%]
Pressure (altimeter): 30.27 inches Hg (1025.0 mb)
Winds: from the ESE (120 degrees) at 6 MPH (5 knots; 2.6 m/s)
Visibility: 6 or more miles (10+ km)
Ceiling: 3500 feet AGL
Clouds: overcast cloud deck at 3500 feet AGL
Weather: no significant weather observed at this time

METAR text: LETL 202330Z AUTO 12006KT 080V150 9999 OVC037 17/13 Q1025
Conditions at: LETL (TERUEL , ES) observed 2330 UTC 20 August 2019
Temperature: 17.0°C (63°F)
Dewpoint: 13.0°C (55°F) [RH = 77%]
Pressure (altimeter): 30.27 inches Hg (1025.0 mb)
Winds: from the ESE (120 degrees) at 7 MPH (6 knots; 3.1 m/s)
Visibility: 6 or more miles (10+ km)
Ceiling: 3700 feet AGL
Clouds: overcast cloud deck at 3700 feet AGL
Weather: no significant weather observed at this time

METAR text: LETL 202300Z AUTO 12006KT 080V160 9999 OVC037 17/13 Q1025
Conditions at: LETL (TERUEL , ES) observed 2300 UTC 20 August 2019
Temperature: 17.0°C (63°F)
Dewpoint: 13.0°C (55°F) [RH = 77%]
Pressure (altimeter): 30.27 inches Hg (1025.0 mb)
Winds: from the ESE (120 degrees) at 7 MPH (6 knots; 3.1 m/s)
Visibility: 6 or more miles (10+ km)
Ceiling: 3700 feet AGL
Clouds: overcast cloud deck at 3700 feet AGL
Weather: no significant weather observed at this time

METAR text: LETL 202230Z AUTO 11010KT 090V150 9999 OVC036 17/13 Q1025
Conditions at: LETL (TERUEL , ES) observed 2230 UTC 20 August 2019
Temperature: 17.0°C (63°F)
Dewpoint: 13.0°C (55°F) [RH = 77%]
Pressure (altimeter): 30.27 inches Hg (1025.0 mb)
Winds: from the ESE (110 degrees) at 12 MPH (10 knots; 5.1 m/s)
Visibility: 6 or more miles (10+ km)
Ceiling: 3600 feet AGL
Clouds: overcast cloud deck at 3600 feet AGL
Weather: no significant weather observed at this time

METAR text: LETL 202200Z AUTO 13008KT 080V160 9999 BKN034 18/13 Q1025
Conditions at: LETL (TERUEL , ES) observed 2200 UTC 20 August 2019
Temperature: 18.0°C (64°F)
Dewpoint: 13.0°C (55°F) [RH = 73%]
Pressure (altimeter): 30.27 inches Hg (1025.0 mb)
Winds: from the SE (130 degrees) at 9 MPH (8 knots; 4.1 m/s)
Visibility: 6 or more miles (10+ km)
Ceiling: 3400 feet AGL
Clouds: broken clouds at 3400 feet AGL
Weather: no significant weather observed at this time

METAR text: LETL 202130Z AUTO 12006KT 060V150 9999 SCT033 17/13 Q1025
Conditions at: LETL (TERUEL , ES) observed 2130 UTC 20 August 2019
Temperature: 17.0°C (63°F)
Dewpoint: 13.0°C (55°F) [RH = 77%]
Pressure (altimeter): 30.27 inches Hg (1025.0 mb)
Winds: from the ESE (120 degrees) at 7 MPH (6 knots; 3.1 m/s)
Visibility: 6 or more miles (10+ km)
Ceiling: at least 12,000 feet AGL
Clouds: scattered clouds at 3300 feet AGL
Weather: no significant weather observed at this time

METAR text: LETL 202100Z AUTO 09003KT 9999 BKN030 17/13 Q1025
Conditions at: LETL (TERUEL , ES) observed 2100 UTC 20 August 2019
Temperature: 17.0°C (63°F)
Dewpoint: 13.0°C (55°F) [RH = 77%]
Pressure (altimeter): 30.27 inches Hg (1025.0 mb)
Winds: from the E (90 degrees) at 3 MPH (3 knots; 1.5 m/s)
Visibility: 6 or more miles (10+ km)
Ceiling: 3000 feet AGL
Clouds: broken clouds at 3000 feet AGL
Weather: no significant weather observed at this time

METAR text: LETL 202030Z AUTO 09003KT 050V130 9999 OVC028 18/13 Q1025
Conditions at: LETL (TERUEL , ES) observed 2030 UTC 20 August 2019
Temperature: 18.0°C (64°F)
Dewpoint: 13.0°C (55°F) [RH = 73%]
Pressure (altimeter): 30.27 inches Hg (1025.0 mb)
Winds: from the E (90 degrees) at 3 MPH (3 knots; 1.5 m/s)
Visibility: 6 or more miles (10+ km)
Ceiling: 2800 feet AGL
Clouds: overcast cloud deck at 2800 feet AGL
Weather: no significant weather observed at this time

METAR text: LETL 202000Z AUTO 10004KT 9999 BKN029 18/13 Q1024
Conditions at: LETL (TERUEL , ES) observed 2000 UTC 20 August 2019
Temperature: 18.0°C (64°F)
Dewpoint: 13.0°C (55°F) [RH = 73%]
Pressure (altimeter): 30.24 inches Hg (1024.0 mb)
Winds: from the E (100 degrees) at 5 MPH (4 knots; 2.1 m/s)
Visibility: 6 or more miles (10+ km)
Ceiling: 2900 feet AGL
Clouds: broken clouds at 2900 feet AGL
Weather: no significant weather observed at this time

METAR text: LETL 201930Z AUTO 10007KT 080V140 9999 BKN030 OVC038 18/14 Q1024
Conditions at: LETL (TERUEL , ES) observed 1930 UTC 20 August 2019
Temperature: 18.0°C (64°F)
Dewpoint: 14.0°C (57°F) [RH = 77%]
Pressure (altimeter): 30.24 inches Hg (1024.0 mb)
Winds: from the E (100 degrees) at 8 MPH (7 knots; 3.6 m/s)
Visibility: 6 or more miles (10+ km)
Ceiling: 3000 feet AGL
Clouds: broken clouds at 3000 feet AGL
overcast cloud deck at 3800 feet AGL
Weather: no significant weather observed at this time

METAR text: LETL 201900Z AUTO 12007KT 080V160 9999 BKN033 BKN039 OVC046 18/14 Q1024
Conditions at: LETL (TERUEL , ES) observed 1900 UTC 20 August 2019
Temperature: 18.0°C (64°F)
Dewpoint: 14.0°C (57°F) [RH = 77%]
Pressure (altimeter): 30.24 inches Hg (1024.0 mb)
Winds: from the ESE (120 degrees) at 8 MPH (7 knots; 3.6 m/s)
Visibility: 6 or more miles (10+ km)
Ceiling: 3300 feet AGL
Clouds: broken clouds at 3300 feet AGL
broken clouds at 3900 feet AGL
overcast cloud deck at 4600 feet AGL
Weather: no significant weather observed at this time

METAR text: LETL 201830Z AUTO 11007KT 070V160 9999 OVC034 19/14 Q1023
Conditions at: LETL (TERUEL , ES) observed 1830 UTC 20 August 2019
Temperature: 19.0°C (66°F)
Dewpoint: 14.0°C (57°F) [RH = 73%]
Pressure (altimeter): 30.21 inches Hg (1023.0 mb)
Winds: from the ESE (110 degrees) at 8 MPH (7 knots; 3.6 m/s)
Visibility: 6 or more miles (10+ km)
Ceiling: 3400 feet AGL
Clouds: overcast cloud deck at 3400 feet AGL
Weather: no significant weather observed at this time

METAR text: LETL 201800Z AUTO 11009KT 080V150 9999 OVC027 19/14 Q1023
Conditions at: LETL (TERUEL , ES) observed 1800 UTC 20 August 2019
Temperature: 19.0°C (66°F)
Dewpoint: 14.0°C (57°F) [RH = 73%]
Pressure (altimeter): 30.21 inches Hg (1023.0 mb)
Winds: from the ESE (110 degrees) at 10 MPH (9 knots; 4.6 m/s)
Visibility: 6 or more miles (10+ km)
Ceiling: 2700 feet AGL
Clouds: overcast cloud deck at 2700 feet AGL
Weather: no significant weather observed at this time

METAR text: LETL 201730Z AUTO 14007KT 060V160 9999 BKN023 OVC029 19/15 Q1023
Conditions at: LETL (TERUEL , ES) observed 1730 UTC 20 August 2019
Temperature: 19.0°C (66°F)
Dewpoint: 15.0°C (59°F) [RH = 78%]
Pressure (altimeter): 30.21 inches Hg (1023.0 mb)
Winds: from the SE (140 degrees) at 8 MPH (7 knots; 3.6 m/s)
Visibility: 6 or more miles (10+ km)
Ceiling: 2300 feet AGL
Clouds: broken clouds at 2300 feet AGL
overcast cloud deck at 2900 feet AGL
Weather: no significant weather observed at this time

METAR text: LETL 201700Z AUTO 13006KT 9999 FEW021 OVC030 20/15 Q1023
Conditions at: LETL (TERUEL , ES) observed 1700 UTC 20 August 2019
Temperature: 20.0°C (68°F)
Dewpoint: 15.0°C (59°F) [RH = 73%]
Pressure (altimeter): 30.21 inches Hg (1023.0 mb)
Winds: from the SE (130 degrees) at 7 MPH (6 knots; 3.1 m/s)
Visibility: 6 or more miles (10+ km)
Ceiling: 3000 feet AGL
Clouds: few clouds at 2100 feet AGL
overcast cloud deck at 3000 feet AGL
Weather: no significant weather observed at this time

METAR text: LETL 201630Z AUTO 33009KT 9999 OVC033 21/13 Q1023
Conditions at: LETL (TERUEL , ES) observed 1630 UTC 20 August 2019
Temperature: 21.0°C (70°F)
Dewpoint: 13.0°C (55°F) [RH = 60%]
Pressure (altimeter): 30.21 inches Hg (1023.0 mb)
Winds: from the NNW (330 degrees) at 10 MPH (9 knots; 4.6 m/s)
Visibility: 6 or more miles (10+ km)
Ceiling: 3300 feet AGL
Clouds: overcast cloud deck at 3300 feet AGL
Weather: no significant weather observed at this time

METAR text: LETL 201600Z AUTO 33013KT 300V360 9999 BKN036 22/13 Q1022
Conditions at: LETL (TERUEL , ES) observed 1600 UTC 20 August 2019
Temperature: 22.0°C (72°F)
Dewpoint: 13.0°C (55°F) [RH = 57%]
Pressure (altimeter): 30.18 inches Hg (1022.0 mb)
Winds: from the NNW (330 degrees) at 15 MPH (13 knots; 6.7 m/s)
Visibility: 6 or more miles (10+ km)
Ceiling: 3600 feet AGL
Clouds: broken clouds at 3600 feet AGL
Weather: no significant weather observed at this time

METAR text: LETL 201530Z AUTO 34013KT 9999 FEW035 22/13 Q1023
Conditions at: LETL (TERUEL , ES) observed 1530 UTC 20 August 2019
Temperature: 22.0°C (72°F)
Dewpoint: 13.0°C (55°F) [RH = 57%]
Pressure (altimeter): 30.21 inches Hg (1023.0 mb)
Winds: from the NNW (340 degrees) at 15 MPH (13 knots; 6.7 m/s)
Visibility: 6 or more miles (10+ km)
Ceiling: at least 12,000 feet AGL
Clouds: few clouds at 3500 feet AGL
Weather: no significant weather observed at this time

METAR text: LETL 201500Z AUTO 35013KT 310V020 CAVOK 22/13 Q1022
Conditions at: LETL (TERUEL , ES) observed 1500 UTC 20 August 2019
Temperature: 22.0°C (72°F)
Dewpoint: 13.0°C (55°F) [RH = 57%]
Pressure (altimeter): 30.18 inches Hg (1022.0 mb)
Winds: from the N (350 degrees) at 15 MPH (13 knots; 6.7 m/s)
Visibility: 6 or more miles (10+ km)
Ceiling: ceiling and visibility are OK
Clouds: unknown
Weather: no significant weather observed at this time

METAR text: LETL 201430Z AUTO 33015KT 9999 FEW031 20/13 Q1023
Conditions at: LETL (TERUEL , ES) observed 1430 UTC 20 August 2019
Temperature: 20.0°C (68°F)
Dewpoint: 13.0°C (55°F) [RH = 64%]
Pressure (altimeter): 30.21 inches Hg (1023.0 mb)
Winds: from the NNW (330 degrees) at 17 MPH (15 knots; 7.7 m/s)
Visibility: 6 or more miles (10+ km)
Ceiling: at least 12,000 feet AGL
Clouds: few clouds at 3100 feet AGL
Weather: no significant weather observed at this time

METAR text: LETL 201400Z AUTO 33015KT 300V360 9999 OVC028 20/13 Q1023
Conditions at: LETL (TERUEL , ES) observed 1400 UTC 20 August 2019
Temperature: 20.0°C (68°F)
Dewpoint: 13.0°C (55°F) [RH = 64%]
Pressure (altimeter): 30.21 inches Hg (1023.0 mb)
Winds: from the NNW (330 degrees) at 17 MPH (15 knots; 7.7 m/s)
Visibility: 6 or more miles (10+ km)
Ceiling: 2800 feet AGL
Clouds: overcast cloud deck at 2800 feet AGL
Weather: no significant weather observed at this time

METAR text: LETL 201330Z AUTO 33016KT 310V010 9999 OVC028 20/12 Q1023
Conditions at: LETL (TERUEL , ES) observed 1330 UTC 20 August 2019
Temperature: 20.0°C (68°F)
Dewpoint: 12.0°C (54°F) [RH = 60%]
Pressure (altimeter): 30.21 inches Hg (1023.0 mb)
Winds: from the NNW (330 degrees) at 18 MPH (16 knots; 8.2 m/s)
Visibility: 6 or more miles (10+ km)
Ceiling: 2800 feet AGL
Clouds: overcast cloud deck at 2800 feet AGL
Weather: no significant weather observed at this time

METAR text: LETL 201300Z AUTO 33018KT 9999 BKN026 BKN033 20/13 Q1023
Conditions at: LETL (TERUEL , ES) observed 1300 UTC 20 August 2019
Temperature: 20.0°C (68°F)
Dewpoint: 13.0°C (55°F) [RH = 64%]
Pressure (altimeter): 30.21 inches Hg (1023.0 mb)
Winds: from the NNW (330 degrees) at 21 MPH (18 knots; 9.3 m/s)
Visibility: 6 or more miles (10+ km)
Ceiling: 2600 feet AGL
Clouds: broken clouds at 2600 feet AGL
broken clouds at 3300 feet AGL
Weather: no significant weather observed at this time

METAR text: LETL 201230Z AUTO 34016KT 9999 BKN025 20/13 Q1023
Conditions at: LETL (TERUEL , ES) observed 1230 UTC 20 August 2019
Temperature: 20.0°C (68°F)
Dewpoint: 13.0°C (55°F) [RH = 64%]
Pressure (altimeter): 30.21 inches Hg (1023.0 mb)
Winds: from the NNW (340 degrees) at 18 MPH (16 knots; 8.2 m/s)
Visibility: 6 or more miles (10+ km)
Ceiling: 2500 feet AGL
Clouds: broken clouds at 2500 feet AGL
Weather: no significant weather observed at this time

METAR text: LETL 201200Z AUTO 33017KT 9999 OVC023 19/13 Q1023
Conditions at: LETL (TERUEL , ES) observed 1200 UTC 20 August 2019
Temperature: 19.0°C (66°F)
Dewpoint: 13.0°C (55°F) [RH = 68%]
Pressure (altimeter): 30.21 inches Hg (1023.0 mb)
Winds: from the NNW (330 degrees) at 20 MPH (17 knots; 8.7 m/s)
Visibility: 6 or more miles (10+ km)
Ceiling: 2300 feet AGL
Clouds: overcast cloud deck at 2300 feet AGL
Weather: no significant weather observed at this time

METAR text: LETL 201130Z AUTO 33016KT 9999 OVC021 18/13 Q1023
Conditions at: LETL (TERUEL , ES) observed 1130 UTC 20 August 2019
Temperature: 18.0°C (64°F)
Dewpoint: 13.0°C (55°F) [RH = 73%]
Pressure (altimeter): 30.21 inches Hg (1023.0 mb)
Winds: from the NNW (330 degrees) at 18 MPH (16 knots; 8.2 m/s)
Visibility: 6 or more miles (10+ km)
Ceiling: 2100 feet AGL
Clouds: overcast cloud deck at 2100 feet AGL
Weather: no significant weather observed at this time

METAR text: LETL 201100Z AUTO 33014KT 9999 OVC019 18/13 Q1023
Conditions at: LETL (TERUEL , ES) observed 1100 UTC 20 August 2019
Temperature: 18.0°C (64°F)
Dewpoint: 13.0°C (55°F) [RH = 73%]
Pressure (altimeter): 30.21 inches Hg (1023.0 mb)
Winds: from the NNW (330 degrees) at 16 MPH (14 knots; 7.2 m/s)
Visibility: 6 or more miles (10+ km)
Ceiling: 1900 feet AGL
Clouds: overcast cloud deck at 1900 feet AGL
Weather: no significant weather observed at this time

METAR text: LETL 201030Z AUTO 34013KT 9999 OVC018 17/13 Q1023
Conditions at: LETL (TERUEL , ES) observed 1030 UTC 20 August 2019
Temperature: 17.0°C (63°F)
Dewpoint: 13.0°C (55°F) [RH = 77%]
Pressure (altimeter): 30.21 inches Hg (1023.0 mb)
Winds: from the NNW (340 degrees) at 15 MPH (13 knots; 6.7 m/s)
Visibility: 6 or more miles (10+ km)
Ceiling: 1800 feet AGL
Clouds: overcast cloud deck at 1800 feet AGL
Weather: no significant weather observed at this time

METAR text: LETL 201000Z AUTO 35014KT 9999 OVC019 16/13 Q1023
Conditions at: LETL (TERUEL , ES) observed 1000 UTC 20 August 2019
Temperature: 16.0°C (61°F)
Dewpoint: 13.0°C (55°F) [RH = 82%]
Pressure (altimeter): 30.21 inches Hg (1023.0 mb)
Winds: from the N (350 degrees) at 16 MPH (14 knots; 7.2 m/s)
Visibility: 6 or more miles (10+ km)
Ceiling: 1900 feet AGL
Clouds: overcast cloud deck at 1900 feet AGL
Weather: no significant weather observed at this time

METAR text: LETL 200930Z AUTO 34012KT 9999 SCT019 OVC041 15/12 Q1023
Conditions at: LETL (TERUEL , ES) observed 0930 UTC 20 August 2019
Temperature: 15.0°C (59°F)
Dewpoint: 12.0°C (54°F) [RH = 82%]
Pressure (altimeter): 30.21 inches Hg (1023.0 mb)
Winds: from the NNW (340 degrees) at 14 MPH (12 knots; 6.2 m/s)
Visibility: 6 or more miles (10+ km)
Ceiling: 4100 feet AGL
Clouds: scattered clouds at 1900 feet AGL
overcast cloud deck at 4100 feet AGL
Weather: no significant weather observed at this time

METAR text: LETL 200900Z AUTO 34012KT 9999 FEW005 OVC017 15/13 Q1022
Conditions at: LETL (TERUEL , ES) observed 0900 UTC 20 August 2019
Temperature: 15.0°C (59°F)
Dewpoint: 13.0°C (55°F) [RH = 88%]
Pressure (altimeter): 30.18 inches Hg (1022.0 mb)
Winds: from the NNW (340 degrees) at 14 MPH (12 knots; 6.2 m/s)
Visibility: 6 or more miles (10+ km)
Ceiling: 1700 feet AGL
Clouds: few clouds at 500 feet AGL
overcast cloud deck at 1700 feet AGL
Weather: no significant weather observed at this time

METAR text: LETL 200830Z AUTO 34016KT 9999 FEW007 BKN018 OVC041 ///CB 15/13 Q1022
Conditions at: LETL (TERUEL , ES) observed 0830 UTC 20 August 2019
Temperature: 15.0°C (59°F)
Dewpoint: 13.0°C (55°F) [RH = 88%]
Pressure (altimeter): 30.18 inches Hg (1022.0 mb)
Winds: from the NNW (340 degrees) at 18 MPH (16 knots; 8.2 m/s)
Visibility: 6 or more miles (10+ km)
Ceiling: 1800 feet AGL
Clouds: few clouds at 700 feet AGL
broken clouds at 1800 feet AGL
overcast cloud deck at 4100 feet AGL
Weather: no significant weather observed at this time

METAR text: LETL 200800Z AUTO 34014KT 9999 SCT017 OVC040 16/12 Q1021
Conditions at: LETL (TERUEL , ES) observed 0800 UTC 20 August 2019
Temperature: 16.0°C (61°F)
Dewpoint: 12.0°C (54°F) [RH = 77%]
Pressure (altimeter): 30.15 inches Hg (1021.0 mb)
Winds: from the NNW (340 degrees) at 16 MPH (14 knots; 7.2 m/s)
Visibility: 6 or more miles (10+ km)
Ceiling: 4000 feet AGL
Clouds: scattered clouds at 1700 feet AGL
overcast cloud deck at 4000 feet AGL
Weather: no significant weather observed at this time

METAR text: LETL 200730Z AUTO 35011KT 9999 FEW016 OVC040 16/12 Q1021
Conditions at: LETL (TERUEL , ES) observed 0730 UTC 20 August 2019
Temperature: 16.0°C (61°F)
Dewpoint: 12.0°C (54°F) [RH = 77%]
Pressure (altimeter): 30.15 inches Hg (1021.0 mb)
Winds: from the N (350 degrees) at 13 MPH (11 knots; 5.7 m/s)
Visibility: 6 or more miles (10+ km)
Ceiling: 4000 feet AGL
Clouds: few clouds at 1600 feet AGL
overcast cloud deck at 4000 feet AGL
Weather: no significant weather observed at this time

METAR text: LETL 200700Z AUTO 34009KT 9999 SCT017 BKN022 OVC041 16/12 Q1021
Conditions at: LETL (TERUEL , ES) observed 0700 UTC 20 August 2019
Temperature: 16.0°C (61°F)
Dewpoint: 12.0°C (54°F) [RH = 77%]
Pressure (altimeter): 30.15 inches Hg (1021.0 mb)
Winds: from the NNW (340 degrees) at 10 MPH (9 knots; 4.6 m/s)
Visibility: 6 or more miles (10+ km)
Ceiling: 2200 feet AGL
Clouds: scattered clouds at 1700 feet AGL
broken clouds at 2200 feet AGL
overcast cloud deck at 4100 feet AGL
Weather: no significant weather observed at this time

METAR text: LETL 200630Z AUTO 34008KT 9999 SCT039 15/12 Q1021
Conditions at: LETL (TERUEL , ES) observed 0630 UTC 20 August 2019
Temperature: 15.0°C (59°F)
Dewpoint: 12.0°C (54°F) [RH = 82%]
Pressure (altimeter): 30.15 inches Hg (1021.0 mb)
Winds: from the NNW (340 degrees) at 9 MPH (8 knots; 4.1 m/s)
Visibility: 6 or more miles (10+ km)
Ceiling: at least 12,000 feet AGL
Clouds: scattered clouds at 3900 feet AGL
Weather: no significant weather observed at this time

METAR text: LETL 200600Z AUTO 33009KT 9999 BKN017 BKN028 15/12 Q1020
Conditions at: LETL (TERUEL , ES) observed 0600 UTC 20 August 2019
Temperature: 15.0°C (59°F)
Dewpoint: 12.0°C (54°F) [RH = 82%]
Pressure (altimeter): 30.12 inches Hg (1020.0 mb)
Winds: from the NNW (330 degrees) at 10 MPH (9 knots; 4.6 m/s)
Visibility: 6 or more miles (10+ km)
Ceiling: 1700 feet AGL
Clouds: broken clouds at 1700 feet AGL
broken clouds at 2800 feet AGL
Weather: no significant weather observed at this time

METAR text: LETL 200530Z AUTO 33011KT 9999 BKN016 BKN022 15/12 Q1020
Conditions at: LETL (TERUEL , ES) observed 0530 UTC 20 August 2019
Temperature: 15.0°C (59°F)
Dewpoint: 12.0°C (54°F) [RH = 82%]
Pressure (altimeter): 30.12 inches Hg (1020.0 mb)
Winds: from the NNW (330 degrees) at 13 MPH (11 knots; 5.7 m/s)
Visibility: 6 or more miles (10+ km)
Ceiling: 1600 feet AGL
Clouds: broken clouds at 1600 feet AGL
broken clouds at 2200 feet AGL
Weather: no significant weather observed at this time

METAR text: LETL 200500Z AUTO 35015KT 9999 BKN016 15/12 Q1020
Conditions at: LETL (TERUEL , ES) observed 0500 UTC 20 August 2019
Temperature: 15.0°C (59°F)
Dewpoint: 12.0°C (54°F) [RH = 82%]
Pressure (altimeter): 30.12 inches Hg (1020.0 mb)
Winds: from the N (350 degrees) at 17 MPH (15 knots; 7.7 m/s)
Visibility: 6 or more miles (10+ km)
Ceiling: 1600 feet AGL
Clouds: broken clouds at 1600 feet AGL
Weather: no significant weather observed at this time

METAR text: LETL 200430Z AUTO 35016KT 9999 BKN015 BKN020 15/12 Q1020
Conditions at: LETL (TERUEL , ES) observed 0430 UTC 20 August 2019
Temperature: 15.0°C (59°F)
Dewpoint: 12.0°C (54°F) [RH = 82%]
Pressure (altimeter): 30.12 inches Hg (1020.0 mb)
Winds: from the N (350 degrees) at 18 MPH (16 knots; 8.2 m/s)
Visibility: 6 or more miles (10+ km)
Ceiling: 1500 feet AGL
Clouds: broken clouds at 1500 feet AGL
broken clouds at 2000 feet AGL
Weather: no significant weather observed at this time

METAR text: LETL 200400Z AUTO 15007KT 9999 SCT019 OVC032 19/15 Q1019
Conditions at: LETL (TERUEL , ES) observed 0400 UTC 20 August 2019
Temperature: 19.0°C (66°F)
Dewpoint: 15.0°C (59°F) [RH = 78%]
Pressure (altimeter): 30.09 inches Hg (1019.0 mb)
Winds: from the SSE (150 degrees) at 8 MPH (7 knots; 3.6 m/s)
Visibility: 6 or more miles (10+ km)
Ceiling: 3200 feet AGL
Clouds: scattered clouds at 1900 feet AGL
overcast cloud deck at 3200 feet AGL
Weather: no significant weather observed at this time

METAR text: LETL 200330Z AUTO 15008KT 9999 BKN032 19/16 Q1019
Conditions at: LETL (TERUEL , ES) observed 0330 UTC 20 August 2019
Temperature: 19.0°C (66°F)
Dewpoint: 16.0°C (61°F) [RH = 83%]
Pressure (altimeter): 30.09 inches Hg (1019.0 mb)
Winds: from the SSE (150 degrees) at 9 MPH (8 knots; 4.1 m/s)
Visibility: 6 or more miles (10+ km)
Ceiling: 3200 feet AGL
Clouds: broken clouds at 3200 feet AGL
Weather: no significant weather observed at this time

METAR text: LETL 200300Z AUTO 14009KT 9999 FEW035 19/16 Q1019
Conditions at: LETL (TERUEL , ES) observed 0300 UTC 20 August 2019
Temperature: 19.0°C (66°F)
Dewpoint: 16.0°C (61°F) [RH = 83%]
Pressure (altimeter): 30.09 inches Hg (1019.0 mb)
Winds: from the SE (140 degrees) at 10 MPH (9 knots; 4.6 m/s)
Visibility: 6 or more miles (10+ km)
Ceiling: at least 12,000 feet AGL
Clouds: few clouds at 3500 feet AGL
Weather: no significant weather observed at this time